Hillsdale, NY (12529)

4:25 PM EST on February 08, 2016 (GMT -0500)
Maple Street | | Change Station
CLOSE
Current Station
Personal Weather Station
Location: Hillsdale, NY
Elevation: 686 ft
Nearby Weather Stations

Elev 686 ft 42.17 °N, 73.52 °W | Updated 3 seconds ago

Snow
Snow
25.1 °F
Feels Like 25 °F
N
0.0
Wind Variable Wind from NE
Gusts 2.0 mph

Today
High -- | Low -- °F
--% Chance of Precip.
Yesterday
High -- | Low -- °F
Precip. -- in
Pressure 29.71 in
Visibility 0.5 miles
Clouds
Windchill 25 °F
Dew Point 23 °F
Humidity 90%
Rainfall 0.00 in
Snow Depth Not available.
7:00 AM 5:17 PM
New Moon, 0% visible
SPECI KPSF 082121Z AUTO 04004KT 1/2SM SN FZFG VV008 M06/M07 A2971 RMK AO2 P0003 T10561072
Pressure 29.71 in
Visibility 0.5 miles
Clouds
Windchill 25 °F
Dew Point 23 °F
Humidity 90%
Rainfall 0.00 in
Snow Depth Not available.
7:00 AM 5:17 PM
New Moon, 0% visible
SPECI KPSF 082121Z AUTO 04004KT 1/2SM SN FZFG VV008 M06/M07 A2971 RMK AO2 P0003 T10561072
Winter Storm will continue impacting eastern New England through Monday night with a combination of heavy snow and strong winds, resulting in dangerous travel conditions. In parts of southeast Massachusetts, blizzard conditions are possible along with tree damage, some power outages and coastal flooding. As of late Monday morning, winds had gusted up to 57 mph on Nantucket Island and coastal flooding was reported in several locations along the Massachusetts coast.

10-Day Weather Forecast

Almanac

Astronomy

Feb. 08, 2016 Rise Set
Actual Time
Civil Twilight
Nautical Twilight
Astronomical Twilight
Moon
Length of Visible Light
Length of Day
Tomorrow will be .
, % of the Moon is Illuminated

Today's Extremes

State Highs State Lows

Community

WunderPhotos

Upload Photos

1,891,516 photos uploaded!

WunderBlog® & News

Nearby

Air Quality

  Air Quality AQ Index Pollutant
Not available.

Snow Depth

Station Depth Elevation

Earthquake Activity

City Distance Mag. Time & Date
Minimum magnitude displayed is 2.5.

Coastal Water Temperatures

Place Temperature

Stations

Nearby Weather Stations

Station Location Temp. Windchill Dew Point Humidity Wind Precip. Elev Updated Type
                   

Watches & Warnings

There are currently no watches in effect.